sensor_id;sensor_type;location;lat;lon;timestamp;P1;durP1;ratioP1;P2;durP2;ratioP2
78549;SDS011;68091;52.130;5.570;2023-06-19T00:01:17;11.07;;;7.38;;
78549;SDS011;68091;52.130;5.570;2023-06-19T00:03:43;9.90;;;7.20;;
78549;SDS011;68091;52.130;5.570;2023-06-19T00:06:09;8.55;;;7.65;;
78549;SDS011;68091;52.130;5.570;2023-06-19T00:08:34;11.13;;;7.43;;
78549;SDS011;68091;52.130;5.570;2023-06-19T00:11:01;9.43;;;7.50;;
78549;SDS011;68091;52.130;5.570;2023-06-19T00:13:27;10.40;;;7.53;;
78549;SDS011;68091;52.130;5.570;2023-06-19T00:15:53;10.60;;;7.38;;
78549;SDS011;68091;52.130;5.570;2023-06-19T00:18:18;9.60;;;7.70;;
78549;SDS011;68091;52.130;5.570;2023-06-19T00:20:45;13.90;;;8.02;;
78549;SDS011;68091;52.130;5.570;2023-06-19T00:23:11;9.70;;;8.27;;
78549;SDS011;68091;52.130;5.570;2023-06-19T00:25:42;11.27;;;7.75;;
78549;SDS011;68091;52.130;5.570;2023-06-19T00:28:09;11.20;;;7.72;;
78549;SDS011;68091;52.130;5.570;2023-06-19T00:30:37;15.13;;;8.45;;
78549;SDS011;68091;52.130;5.570;2023-06-19T00:33:03;9.23;;;8.15;;
78549;SDS011;68091;52.130;5.570;2023-06-19T00:35:29;14.68;;;8.40;;
78549;SDS011;68091;52.130;5.570;2023-06-19T00:37:55;12.48;;;8.30;;
78549;SDS011;68091;52.130;5.570;2023-06-19T00:42:54;9.55;;;7.70;;
78549;SDS011;68091;52.130;5.570;2023-06-19T00:45:20;11.32;;;8.18;;
78549;SDS011;68091;52.130;5.570;2023-06-19T00:47:46;12.05;;;8.73;;
78549;SDS011;68091;52.130;5.570;2023-06-19T00:50:11;9.80;;;8.02;;
78549;SDS011;68091;52.130;5.570;2023-06-19T00:52:37;13.82;;;8.52;;
78549;SDS011;68091;52.130;5.570;2023-06-19T00:55:04;11.40;;;8.20;;
78549;SDS011;68091;52.130;5.570;2023-06-19T00:57:32;10.70;;;8.90;;
78549;SDS011;68091;52.130;5.570;2023-06-19T00:59:58;13.75;;;8.13;;
78549;SDS011;68091;52.130;5.570;2023-06-19T01:02:24;11.98;;;8.60;;
78549;SDS011;68091;52.130;5.570;2023-06-19T01:04:51;12.73;;;8.32;;
78549;SDS011;68091;52.130;5.570;2023-06-19T01:07:17;13.52;;;7.47;;
78549;SDS011;68091;52.130;5.570;2023-06-19T01:09:57;11.05;;;7.30;;
78549;SDS011;68091;52.130;5.570;2023-06-19T01:15:24;9.85;;;8.43;;
78549;SDS011;68091;52.130;5.570;2023-06-19T01:17:51;15.10;;;8.52;;
78549;SDS011;68091;52.130;5.570;2023-06-19T01:20:17;10.57;;;8.23;;
78549;SDS011;68091;52.130;5.570;2023-06-19T01:22:43;11.77;;;8.05;;
78549;SDS011;68091;52.130;5.570;2023-06-19T01:25:09;11.82;;;8.80;;
78549;SDS011;68091;52.130;5.570;2023-06-19T01:27:36;11.63;;;8.32;;
78549;SDS011;68091;52.130;5.570;2023-06-19T01:30:03;9.38;;;7.75;;
78549;SDS011;68091;52.130;5.570;2023-06-19T01:32:31;9.15;;;7.80;;
78549;SDS011;68091;52.130;5.570;2023-06-19T01:35:04;9.82;;;7.63;;
78549;SDS011;68091;52.130;5.570;2023-06-19T01:37:33;8.18;;;7.38;;
78549;SDS011;68091;52.130;5.570;2023-06-19T01:39:59;11.85;;;6.20;;
78549;SDS011;68091;52.130;5.570;2023-06-19T01:42:26;6.93;;;5.75;;
78549;SDS011;68091;52.130;5.570;2023-06-19T01:44:53;7.57;;;6.05;;
78549;SDS011;68091;52.130;5.570;2023-06-19T01:47:19;10.55;;;5.93;;
78549;SDS011;68091;52.130;5.570;2023-06-19T01:49:46;5.82;;;4.65;;
78549;SDS011;68091;52.130;5.570;2023-06-19T01:52:12;11.23;;;5.50;;
78549;SDS011;68091;52.130;5.570;2023-06-19T01:54:38;6.20;;;4.85;;
78549;SDS011;68091;52.130;5.570;2023-06-19T01:57:07;8.60;;;5.22;;
78549;SDS011;68091;52.130;5.570;2023-06-19T01:59:33;7.45;;;5.20;;
78549;SDS011;68091;52.130;5.570;2023-06-19T02:01:59;9.48;;;5.75;;
78549;SDS011;68091;52.130;5.570;2023-06-19T02:04:24;6.38;;;5.15;;
78549;SDS011;68091;52.130;5.570;2023-06-19T02:06:50;9.18;;;5.00;;
78549;SDS011;68091;52.130;5.570;2023-06-19T02:09:16;7.53;;;5.15;;
78549;SDS011;68091;52.130;5.570;2023-06-19T02:11:42;8.80;;;5.13;;
78549;SDS011;68091;52.130;5.570;2023-06-19T02:14:09;6.95;;;5.00;;
78549;SDS011;68091;52.130;5.570;2023-06-19T02:16:36;5.80;;;4.30;;
78549;SDS011;68091;52.130;5.570;2023-06-19T02:19:02;7.35;;;4.50;;
78549;SDS011;68091;52.130;5.570;2023-06-19T02:21:27;6.45;;;4.45;;
78549;SDS011;68091;52.130;5.570;2023-06-19T02:23:53;5.47;;;3.80;;
78549;SDS011;68091;52.130;5.570;2023-06-19T02:26:19;6.50;;;4.05;;
78549;SDS011;68091;52.130;5.570;2023-06-19T02:28:45;4.97;;;3.30;;
78549;SDS011;68091;52.130;5.570;2023-06-19T02:31:10;4.18;;;3.40;;
78549;SDS011;68091;52.130;5.570;2023-06-19T02:33:36;4.47;;;3.45;;
78549;SDS011;68091;52.130;5.570;2023-06-19T02:36:02;5.15;;;3.72;;
78549;SDS011;68091;52.130;5.570;2023-06-19T02:38:28;4.80;;;3.58;;
78549;SDS011;68091;52.130;5.570;2023-06-19T02:40:54;5.40;;;3.50;;
78549;SDS011;68091;52.130;5.570;2023-06-19T02:43:22;7.82;;;3.60;;
78549;SDS011;68091;52.130;5.570;2023-06-19T02:45:48;4.82;;;3.40;;
78549;SDS011;68091;52.130;5.570;2023-06-19T02:48:14;4.88;;;3.70;;
78549;SDS011;68091;52.130;5.570;2023-06-19T02:50:39;5.80;;;3.83;;
78549;SDS011;68091;52.130;5.570;2023-06-19T02:53:05;5.18;;;3.70;;
78549;SDS011;68091;52.130;5.570;2023-06-19T02:55:31;5.88;;;3.22;;
78549;SDS011;68091;52.130;5.570;2023-06-19T02:57:57;5.25;;;3.47;;
78549;SDS011;68091;52.130;5.570;2023-06-19T03:00:22;4.15;;;3.33;;
78549;SDS011;68091;52.130;5.570;2023-06-19T03:02:48;4.18;;;3.45;;
78549;SDS011;68091;52.130;5.570;2023-06-19T03:05:16;4.20;;;3.33;;
78549;SDS011;68091;52.130;5.570;2023-06-19T03:07:41;6.68;;;3.35;;
78549;SDS011;68091;52.130;5.570;2023-06-19T03:10:07;4.88;;;3.88;;
78549;SDS011;68091;52.130;5.570;2023-06-19T03:12:33;5.25;;;3.22;;
78549;SDS011;68091;52.130;5.570;2023-06-19T03:14:59;6.10;;;3.50;;
78549;SDS011;68091;52.130;5.570;2023-06-19T03:17:25;4.50;;;3.15;;
78549;SDS011;68091;52.130;5.570;2023-06-19T03:19:50;6.68;;;3.80;;
78549;SDS011;68091;52.130;5.570;2023-06-19T03:22:17;4.68;;;3.60;;
78549;SDS011;68091;52.130;5.570;2023-06-19T03:24:44;4.65;;;3.75;;
78549;SDS011;68091;52.130;5.570;2023-06-19T03:27:10;5.45;;;3.50;;
78549;SDS011;68091;52.130;5.570;2023-06-19T03:29:35;10.18;;;4.40;;
78549;SDS011;68091;52.130;5.570;2023-06-19T03:32:01;6.00;;;3.72;;
78549;SDS011;68091;52.130;5.570;2023-06-19T03:34:27;6.07;;;4.07;;
78549;SDS011;68091;52.130;5.570;2023-06-19T03:36:52;5.43;;;3.53;;
78549;SDS011;68091;52.130;5.570;2023-06-19T03:39:18;4.78;;;3.53;;
78549;SDS011;68091;52.130;5.570;2023-06-19T03:41:44;5.45;;;3.75;;
78549;SDS011;68091;52.130;5.570;2023-06-19T03:44:10;8.00;;;3.38;;
78549;SDS011;68091;52.130;5.570;2023-06-19T03:46:35;5.05;;;3.42;;
78549;SDS011;68091;52.130;5.570;2023-06-19T03:49:01;5.50;;;4.00;;
78549;SDS011;68091;52.130;5.570;2023-06-19T03:51:29;4.68;;;3.92;;
78549;SDS011;68091;52.130;5.570;2023-06-19T03:53:55;7.57;;;4.18;;
78549;SDS011;68091;52.130;5.570;2023-06-19T03:56:21;7.80;;;4.30;;
78549;SDS011;68091;52.130;5.570;2023-06-19T03:58:46;5.38;;;3.90;;
78549;SDS011;68091;52.130;5.570;2023-06-19T04:01:12;7.45;;;4.60;;
78549;SDS011;68091;52.130;5.570;2023-06-19T04:03:38;6.82;;;5.07;;
78549;SDS011;68091;52.130;5.570;2023-06-19T04:06:03;5.57;;;4.55;;
78549;SDS011;68091;52.130;5.570;2023-06-19T04:08:29;6.75;;;5.80;;
78549;SDS011;68091;52.130;5.570;2023-06-19T04:10:55;9.63;;;5.00;;
78549;SDS011;68091;52.130;5.570;2023-06-19T04:13:21;6.72;;;5.60;;
78549;SDS011;68091;52.130;5.570;2023-06-19T04:15:46;9.55;;;6.32;;
78549;SDS011;68091;52.130;5.570;2023-06-19T04:18:12;14.15;;;6.63;;
78549;SDS011;68091;52.130;5.570;2023-06-19T04:20:38;16.50;;;6.93;;
78549;SDS011;68091;52.130;5.570;2023-06-19T04:23:05;11.10;;;6.63;;
78549;SDS011;68091;52.130;5.570;2023-06-19T04:25:30;10.15;;;7.07;;
78549;SDS011;68091;52.130;5.570;2023-06-19T04:27:56;7.72;;;6.90;;
78549;SDS011;68091;52.130;5.570;2023-06-19T04:30:22;8.70;;;7.63;;
78549;SDS011;68091;52.130;5.570;2023-06-19T04:32:48;10.65;;;7.70;;
78549;SDS011;68091;52.130;5.570;2023-06-19T04:35:19;12.68;;;8.02;;
78549;SDS011;68091;52.130;5.570;2023-06-19T04:37:45;9.57;;;7.82;;
78549;SDS011;68091;52.130;5.570;2023-06-19T04:40:13;14.13;;;9.48;;
78549;SDS011;68091;52.130;5.570;2023-06-19T04:42:39;10.52;;;8.35;;
78549;SDS011;68091;52.130;5.570;2023-06-19T04:45:05;10.05;;;8.10;;
78549;SDS011;68091;52.130;5.570;2023-06-19T04:47:32;10.38;;;8.55;;
78549;SDS011;68091;52.130;5.570;2023-06-19T04:49:58;10.43;;;8.43;;
78549;SDS011;68091;52.130;5.570;2023-06-19T04:52:24;10.90;;;8.70;;
78549;SDS011;68091;52.130;5.570;2023-06-19T04:54:49;13.93;;;8.45;;
78549;SDS011;68091;52.130;5.570;2023-06-19T04:57:15;13.60;;;9.35;;
78549;SDS011;68091;52.130;5.570;2023-06-19T04:59:41;11.68;;;9.52;;
78549;SDS011;68091;52.130;5.570;2023-06-19T05:02:09;16.02;;;10.70;;
78549;SDS011;68091;52.130;5.570;2023-06-19T05:04:35;13.35;;;10.60;;
78549;SDS011;68091;52.130;5.570;2023-06-19T05:07:07;16.80;;;11.98;;
78549;SDS011;68091;52.130;5.570;2023-06-19T05:09:33;15.40;;;12.32;;
78549;SDS011;68091;52.130;5.570;2023-06-19T05:11:59;15.77;;;12.63;;
78549;SDS011;68091;52.130;5.570;2023-06-19T05:14:25;16.13;;;13.30;;
78549;SDS011;68091;52.130;5.570;2023-06-19T05:16:50;15.48;;;13.00;;
78549;SDS011;68091;52.130;5.570;2023-06-19T05:19:16;17.42;;;12.98;;
78549;SDS011;68091;52.130;5.570;2023-06-19T05:21:42;15.35;;;13.10;;
78549;SDS011;68091;52.130;5.570;2023-06-19T05:24:07;16.02;;;12.30;;
78549;SDS011;68091;52.130;5.570;2023-06-19T05:26:33;19.15;;;12.60;;
78549;SDS011;68091;52.130;5.570;2023-06-19T05:28:59;16.55;;;12.93;;
78549;SDS011;68091;52.130;5.570;2023-06-19T05:31:24;13.82;;;12.13;;
78549;SDS011;68091;52.130;5.570;2023-06-19T05:33:50;17.08;;;12.82;;
78549;SDS011;68091;52.130;5.570;2023-06-19T05:36:16;16.20;;;12.15;;
78549;SDS011;68091;52.130;5.570;2023-06-19T05:38:41;16.00;;;12.77;;
78549;SDS011;68091;52.130;5.570;2023-06-19T05:41:07;16.83;;;13.10;;
78549;SDS011;68091;52.130;5.570;2023-06-19T05:43:33;15.38;;;12.48;;
78549;SDS011;68091;52.130;5.570;2023-06-19T05:45:59;15.70;;;13.25;;
78549;SDS011;68091;52.130;5.570;2023-06-19T05:48:25;14.48;;;12.70;;
78549;SDS011;68091;52.130;5.570;2023-06-19T05:50:51;20.02;;;13.80;;
78549;SDS011;68091;52.130;5.570;2023-06-19T05:53:17;15.57;;;13.73;;
78549;SDS011;68091;52.130;5.570;2023-06-19T05:55:43;18.45;;;14.13;;
78549;SDS011;68091;52.130;5.570;2023-06-19T05:58:11;15.63;;;13.55;;
78549;SDS011;68091;52.130;5.570;2023-06-19T06:00:37;17.65;;;12.88;;
78549;SDS011;68091;52.130;5.570;2023-06-19T06:03:03;20.90;;;12.80;;
78549;SDS011;68091;52.130;5.570;2023-06-19T06:05:28;15.48;;;12.30;;
78549;SDS011;68091;52.130;5.570;2023-06-19T06:07:54;16.25;;;12.43;;
78549;SDS011;68091;52.130;5.570;2023-06-19T06:10:21;14.10;;;12.35;;
78549;SDS011;68091;52.130;5.570;2023-06-19T06:12:47;15.15;;;11.57;;
78549;SDS011;68091;52.130;5.570;2023-06-19T06:15:14;13.20;;;11.10;;
78549;SDS011;68091;52.130;5.570;2023-06-19T06:17:40;15.75;;;11.32;;
78549;SDS011;68091;52.130;5.570;2023-06-19T06:20:06;12.85;;;11.55;;
78549;SDS011;68091;52.130;5.570;2023-06-19T06:22:41;17.65;;;12.38;;
78549;SDS011;68091;52.130;5.570;2023-06-19T06:25:08;16.70;;;11.38;;
78549;SDS011;68091;52.130;5.570;2023-06-19T06:27:37;14.50;;;11.65;;
78549;SDS011;68091;52.130;5.570;2023-06-19T06:30:03;14.52;;;12.60;;
78549;SDS011;68091;52.130;5.570;2023-06-19T06:32:29;18.50;;;12.35;;
78549;SDS011;68091;52.130;5.570;2023-06-19T06:34:56;23.17;;;14.68;;
78549;SDS011;68091;52.130;5.570;2023-06-19T06:37:22;14.82;;;13.25;;
78549;SDS011;68091;52.130;5.570;2023-06-19T06:39:48;19.55;;;13.23;;
78549;SDS011;68091;52.130;5.570;2023-06-19T06:42:14;16.85;;;13.68;;
78549;SDS011;68091;52.130;5.570;2023-06-19T06:44:41;16.33;;;13.80;;
78549;SDS011;68091;52.130;5.570;2023-06-19T06:47:06;13.98;;;12.32;;
78549;SDS011;68091;52.130;5.570;2023-06-19T06:49:32;16.65;;;11.93;;
78549;SDS011;68091;52.130;5.570;2023-06-19T06:51:58;17.58;;;11.20;;
78549;SDS011;68091;52.130;5.570;2023-06-19T06:54:23;12.07;;;10.25;;
78549;SDS011;68091;52.130;5.570;2023-06-19T06:56:49;15.90;;;10.32;;
78549;SDS011;68091;52.130;5.570;2023-06-19T06:59:17;14.52;;;9.30;;
78549;SDS011;68091;52.130;5.570;2023-06-19T07:01:45;10.45;;;9.30;;
78549;SDS011;68091;52.130;5.570;2023-06-19T07:04:11;10.57;;;8.70;;
78549;SDS011;68091;52.130;5.570;2023-06-19T07:06:37;10.95;;;7.97;;
78549;SDS011;68091;52.130;5.570;2023-06-19T07:09:03;11.95;;;7.80;;
78549;SDS011;68091;52.130;5.570;2023-06-19T07:11:28;11.55;;;8.82;;
78549;SDS011;68091;52.130;5.570;2023-06-19T07:13:54;14.63;;;10.23;;
78549;SDS011;68091;52.130;5.570;2023-06-19T07:16:19;16.73;;;9.65;;
78549;SDS011;68091;52.130;5.570;2023-06-19T07:18:48;13.80;;;9.40;;
78549;SDS011;68091;52.130;5.570;2023-06-19T07:21:14;10.82;;;8.98;;
78549;SDS011;68091;52.130;5.570;2023-06-19T07:23:40;13.57;;;9.40;;
78549;SDS011;68091;52.130;5.570;2023-06-19T07:26:07;13.38;;;9.45;;
78549;SDS011;68091;52.130;5.570;2023-06-19T07:28:34;15.35;;;9.48;;
78549;SDS011;68091;52.130;5.570;2023-06-19T07:31:01;12.98;;;9.80;;
78549;SDS011;68091;52.130;5.570;2023-06-19T07:33:28;15.55;;;11.52;;
78549;SDS011;68091;52.130;5.570;2023-06-19T07:35:54;15.98;;;11.85;;
78549;SDS011;68091;52.130;5.570;2023-06-19T07:38:20;16.70;;;11.95;;
78549;SDS011;68091;52.130;5.570;2023-06-19T07:40:46;15.48;;;12.25;;
78549;SDS011;68091;52.130;5.570;2023-06-19T07:43:12;15.90;;;13.05;;
78549;SDS011;68091;52.130;5.570;2023-06-19T07:45:37;15.38;;;13.60;;
78549;SDS011;68091;52.130;5.570;2023-06-19T07:48:03;18.30;;;13.15;;
78549;SDS011;68091;52.130;5.570;2023-06-19T07:50:32;22.20;;;14.40;;
78549;SDS011;68091;52.130;5.570;2023-06-19T07:52:57;18.63;;;14.57;;
78549;SDS011;68091;52.130;5.570;2023-06-19T07:55:23;27.95;;;15.10;;
78549;SDS011;68091;52.130;5.570;2023-06-19T07:57:49;18.17;;;14.18;;
78549;SDS011;68091;52.130;5.570;2023-06-19T08:00:15;17.17;;;13.80;;
78549;SDS011;68091;52.130;5.570;2023-06-19T08:02:41;21.08;;;15.27;;
78549;SDS011;68091;52.130;5.570;2023-06-19T08:05:07;23.00;;;16.27;;
78549;SDS011;68091;52.130;5.570;2023-06-19T08:07:33;24.65;;;17.20;;
78549;SDS011;68091;52.130;5.570;2023-06-19T08:10:00;25.17;;;18.70;;
78549;SDS011;68091;52.130;5.570;2023-06-19T08:12:26;25.38;;;20.10;;
78549;SDS011;68091;52.130;5.570;2023-06-19T08:14:51;24.80;;;18.90;;
78549;SDS011;68091;52.130;5.570;2023-06-19T08:17:17;26.40;;;18.55;;
78549;SDS011;68091;52.130;5.570;2023-06-19T08:19:43;27.50;;;16.60;;
78549;SDS011;68091;52.130;5.570;2023-06-19T08:22:08;30.15;;;16.90;;
78549;SDS011;68091;52.130;5.570;2023-06-19T08:24:35;24.73;;;18.88;;
78549;SDS011;68091;52.130;5.570;2023-06-19T08:27:01;24.48;;;18.60;;
78549;SDS011;68091;52.130;5.570;2023-06-19T08:29:27;23.85;;;18.13;;
78549;SDS011;68091;52.130;5.570;2023-06-19T08:31:53;21.48;;;17.85;;
78549;SDS011;68091;52.130;5.570;2023-06-19T08:34:19;21.80;;;19.00;;
78549;SDS011;68091;52.130;5.570;2023-06-19T08:36:44;23.58;;;19.38;;
78549;SDS011;68091;52.130;5.570;2023-06-19T08:39:10;26.48;;;19.33;;
78549;SDS011;68091;52.130;5.570;2023-06-19T08:41:36;25.77;;;18.42;;
78549;SDS011;68091;52.130;5.570;2023-06-19T08:44:03;21.42;;;17.40;;
78549;SDS011;68091;52.130;5.570;2023-06-19T08:46:29;20.33;;;17.65;;
78549;SDS011;68091;52.130;5.570;2023-06-19T08:48:55;23.52;;;18.90;;
78549;SDS011;68091;52.130;5.570;2023-06-19T08:51:21;23.38;;;19.05;;
78549;SDS011;68091;52.130;5.570;2023-06-19T08:53:47;22.50;;;17.85;;
78549;SDS011;68091;52.130;5.570;2023-06-19T08:56:17;24.52;;;17.58;;
78549;SDS011;68091;52.130;5.570;2023-06-19T08:58:43;20.30;;;16.67;;
78549;SDS011;68091;52.130;5.570;2023-06-19T09:01:09;28.75;;;18.98;;
78549;SDS011;68091;52.130;5.570;2023-06-19T09:03:34;24.08;;;18.70;;
78549;SDS011;68091;52.130;5.570;2023-06-19T09:06:04;23.95;;;17.02;;
78549;SDS011;68091;52.130;5.570;2023-06-19T09:08:32;22.67;;;16.90;;
78549;SDS011;68091;52.130;5.570;2023-06-19T09:10:59;22.58;;;17.40;;
78549;SDS011;68091;52.130;5.570;2023-06-19T09:13:29;19.38;;;15.35;;
78549;SDS011;68091;52.130;5.570;2023-06-19T09:18:26;23.27;;;18.00;;
78549;SDS011;68091;52.130;5.570;2023-06-19T09:20:54;20.60;;;17.50;;
78549;SDS011;68091;52.130;5.570;2023-06-19T09:23:20;21.80;;;17.60;;
78549;SDS011;68091;52.130;5.570;2023-06-19T09:25:46;22.55;;;19.52;;
78549;SDS011;68091;52.130;5.570;2023-06-19T09:28:17;27.00;;;21.08;;
78549;SDS011;68091;52.130;5.570;2023-06-19T09:33:23;24.85;;;19.42;;
78549;SDS011;68091;52.130;5.570;2023-06-19T09:35:53;24.63;;;19.85;;
78549;SDS011;68091;52.130;5.570;2023-06-19T09:38:21;25.33;;;20.33;;
78549;SDS011;68091;52.130;5.570;2023-06-19T09:40:51;28.10;;;21.25;;
78549;SDS011;68091;52.130;5.570;2023-06-19T09:43:18;25.13;;;20.88;;
78549;SDS011;68091;52.130;5.570;2023-06-19T09:45:48;26.00;;;21.52;;
78549;SDS011;68091;52.130;5.570;2023-06-19T09:48:18;24.80;;;19.13;;
78549;SDS011;68091;52.130;5.570;2023-06-19T09:50:51;24.67;;;19.13;;
78549;SDS011;68091;52.130;5.570;2023-06-19T09:53:24;25.95;;;18.77;;
78549;SDS011;68091;52.130;5.570;2023-06-19T09:55:50;27.17;;;18.98;;
78549;SDS011;68091;52.130;5.570;2023-06-19T09:58:17;26.35;;;19.35;;
78549;SDS011;68091;52.130;5.570;2023-06-19T10:00:45;25.30;;;19.77;;
78549;SDS011;68091;52.130;5.570;2023-06-19T10:03:12;27.55;;;19.90;;
78549;SDS011;68091;52.130;5.570;2023-06-19T10:05:39;24.65;;;18.65;;
78549;SDS011;68091;52.130;5.570;2023-06-19T10:08:08;24.88;;;19.20;;
78549;SDS011;68091;52.130;5.570;2023-06-19T10:10:34;25.40;;;17.25;;
78549;SDS011;68091;52.130;5.570;2023-06-19T10:13:11;26.30;;;18.95;;
78549;SDS011;68091;52.130;5.570;2023-06-19T10:15:42;24.42;;;17.55;;
78549;SDS011;68091;52.130;5.570;2023-06-19T10:18:13;25.52;;;18.60;;
78549;SDS011;68091;52.130;5.570;2023-06-19T10:20:41;22.77;;;18.77;;
78549;SDS011;68091;52.130;5.570;2023-06-19T10:23:08;24.73;;;17.00;;
78549;SDS011;68091;52.130;5.570;2023-06-19T10:25:41;20.52;;;16.02;;
78549;SDS011;68091;52.130;5.570;2023-06-19T10:28:21;18.98;;;15.95;;
78549;SDS011;68091;52.130;5.570;2023-06-19T10:33:32;22.00;;;16.67;;
78549;SDS011;68091;52.130;5.570;2023-06-19T10:35:59;19.77;;;16.75;;
78549;SDS011;68091;52.130;5.570;2023-06-19T10:38:26;19.60;;;15.27;;
78549;SDS011;68091;52.130;5.570;2023-06-19T10:40:52;20.45;;;16.60;;
78549;SDS011;68091;52.130;5.570;2023-06-19T10:43:21;24.27;;;16.30;;
78549;SDS011;68091;52.130;5.570;2023-06-19T10:45:50;18.02;;;13.60;;
78549;SDS011;68091;52.130;5.570;2023-06-19T10:48:20;20.92;;;14.45;;
78549;SDS011;68091;52.130;5.570;2023-06-19T10:50:47;18.30;;;14.20;;
78549;SDS011;68091;52.130;5.570;2023-06-19T10:53:34;17.88;;;14.45;;
78549;SDS011;68091;52.130;5.570;2023-06-19T10:56:00;19.83;;;14.35;;
78549;SDS011;68091;52.130;5.570;2023-06-19T10:58:27;18.70;;;14.27;;
78549;SDS011;68091;52.130;5.570;2023-06-19T11:00:54;17.80;;;15.50;;
78549;SDS011;68091;52.130;5.570;2023-06-19T11:03:20;18.20;;;14.02;;
78549;SDS011;68091;52.130;5.570;2023-06-19T11:05:46;19.60;;;14.55;;
78549;SDS011;68091;52.130;5.570;2023-06-19T11:08:19;17.63;;;13.70;;
78549;SDS011;68091;52.130;5.570;2023-06-19T11:10:46;20.52;;;15.90;;
78549;SDS011;68091;52.130;5.570;2023-06-19T11:13:16;20.42;;;14.65;;
78549;SDS011;68091;52.130;5.570;2023-06-19T11:15:44;22.70;;;14.50;;
78549;SDS011;68091;52.130;5.570;2023-06-19T11:18:10;22.52;;;15.60;;
78549;SDS011;68091;52.130;5.570;2023-06-19T11:20:58;19.33;;;14.90;;
78549;SDS011;68091;52.130;5.570;2023-06-19T11:23:30;19.05;;;14.73;;
78549;SDS011;68091;52.130;5.570;2023-06-19T11:26:02;21.52;;;15.93;;
78549;SDS011;68091;52.130;5.570;2023-06-19T11:28:29;18.77;;;13.15;;
78549;SDS011;68091;52.130;5.570;2023-06-19T11:30:58;18.13;;;13.55;;
78549;SDS011;68091;52.130;5.570;2023-06-19T11:33:26;21.05;;;14.52;;
78549;SDS011;68091;52.130;5.570;2023-06-19T11:35:53;18.10;;;12.85;;
78549;SDS011;68091;52.130;5.570;2023-06-19T11:38:20;19.75;;;14.13;;
78549;SDS011;68091;52.130;5.570;2023-06-19T11:40:47;15.73;;;12.40;;
78549;SDS011;68091;52.130;5.570;2023-06-19T11:43:23;13.60;;;11.90;;
78549;SDS011;68091;52.130;5.570;2023-06-19T11:45:53;16.92;;;12.35;;
78549;SDS011;68091;52.130;5.570;2023-06-19T11:48:25;18.27;;;12.00;;
78549;SDS011;68091;52.130;5.570;2023-06-19T11:50:51;16.00;;;11.05;;
78549;SDS011;68091;52.130;5.570;2023-06-19T11:53:22;18.85;;;10.32;;
78549;SDS011;68091;52.130;5.570;2023-06-19T11:55:49;17.60;;;12.70;;
78549;SDS011;68091;52.130;5.570;2023-06-19T11:58:16;36.33;;;20.42;;
78549;SDS011;68091;52.130;5.570;2023-06-19T12:00:42;16.77;;;12.90;;
78549;SDS011;68091;52.130;5.570;2023-06-19T12:03:08;20.63;;;12.38;;
78549;SDS011;68091;52.130;5.570;2023-06-19T12:05:34;16.00;;;12.98;;
78549;SDS011;68091;52.130;5.570;2023-06-19T12:08:01;18.23;;;11.48;;
78549;SDS011;68091;52.130;5.570;2023-06-19T12:10:28;14.63;;;10.75;;
78549;SDS011;68091;52.130;5.570;2023-06-19T12:12:54;15.02;;;11.38;;
78549;SDS011;68091;52.130;5.570;2023-06-19T12:15:19;19.23;;;12.13;;
78549;SDS011;68091;52.130;5.570;2023-06-19T12:17:45;12.77;;;9.82;;
78549;SDS011;68091;52.130;5.570;2023-06-19T12:20:11;18.27;;;12.38;;
78549;SDS011;68091;52.130;5.570;2023-06-19T12:22:38;14.38;;;11.38;;
78549;SDS011;68091;52.130;5.570;2023-06-19T12:25:05;17.75;;;11.82;;
78549;SDS011;68091;52.130;5.570;2023-06-19T12:27:31;12.73;;;9.20;;
78549;SDS011;68091;52.130;5.570;2023-06-19T12:29:57;17.83;;;10.85;;
78549;SDS011;68091;52.130;5.570;2023-06-19T12:32:23;13.10;;;9.60;;
78549;SDS011;68091;52.130;5.570;2023-06-19T12:34:49;16.75;;;10.20;;
78549;SDS011;68091;52.130;5.570;2023-06-19T12:37:19;19.30;;;11.02;;
78549;SDS011;68091;52.130;5.570;2023-06-19T12:39:45;14.85;;;9.35;;
78549;SDS011;68091;52.130;5.570;2023-06-19T12:42:11;12.65;;;10.30;;
78549;SDS011;68091;52.130;5.570;2023-06-19T12:44:38;15.20;;;10.43;;
78549;SDS011;68091;52.130;5.570;2023-06-19T12:47:07;12.98;;;9.77;;
78549;SDS011;68091;52.130;5.570;2023-06-19T12:49:33;11.18;;;8.52;;
78549;SDS011;68091;52.130;5.570;2023-06-19T12:51:59;12.10;;;9.20;;
78549;SDS011;68091;52.130;5.570;2023-06-19T12:54:25;11.98;;;9.80;;
78549;SDS011;68091;52.130;5.570;2023-06-19T12:56:51;11.65;;;10.27;;
78549;SDS011;68091;52.130;5.570;2023-06-19T12:59:17;12.18;;;10.90;;
78549;SDS011;68091;52.130;5.570;2023-06-19T13:01:43;12.70;;;10.13;;
78549;SDS011;68091;52.130;5.570;2023-06-19T13:04:09;15.35;;;10.55;;
78549;SDS011;68091;52.130;5.570;2023-06-19T13:06:36;10.40;;;8.40;;
78549;SDS011;68091;52.130;5.570;2023-06-19T13:09:02;10.65;;;8.82;;
78549;SDS011;68091;52.130;5.570;2023-06-19T13:11:28;12.60;;;8.60;;
78549;SDS011;68091;52.130;5.570;2023-06-19T13:13:54;11.05;;;8.25;;
78549;SDS011;68091;52.130;5.570;2023-06-19T13:16:20;11.73;;;8.40;;
78549;SDS011;68091;52.130;5.570;2023-06-19T13:18:45;10.45;;;8.57;;
78549;SDS011;68091;52.130;5.570;2023-06-19T13:21:11;13.68;;;8.82;;
78549;SDS011;68091;52.130;5.570;2023-06-19T13:23:37;11.40;;;8.65;;
78549;SDS011;68091;52.130;5.570;2023-06-19T13:26:04;10.07;;;8.38;;
78549;SDS011;68091;52.130;5.570;2023-06-19T13:28:31;12.45;;;8.27;;
78549;SDS011;68091;52.130;5.570;2023-06-19T13:30:56;12.90;;;7.80;;
78549;SDS011;68091;52.130;5.570;2023-06-19T13:33:22;11.07;;;8.25;;
78549;SDS011;68091;52.130;5.570;2023-06-19T13:35:48;11.50;;;8.75;;
78549;SDS011;68091;52.130;5.570;2023-06-19T13:38:13;11.32;;;8.15;;
78549;SDS011;68091;52.130;5.570;2023-06-19T13:40:40;10.05;;;7.53;;
78549;SDS011;68091;52.130;5.570;2023-06-19T13:43:06;9.77;;;7.57;;
78549;SDS011;68091;52.130;5.570;2023-06-19T13:45:32;11.40;;;7.85;;
78549;SDS011;68091;52.130;5.570;2023-06-19T13:47:59;10.80;;;7.80;;
78549;SDS011;68091;52.130;5.570;2023-06-19T13:50:25;10.98;;;7.35;;
78549;SDS011;68091;52.130;5.570;2023-06-19T13:52:51;11.27;;;7.65;;
78549;SDS011;68091;52.130;5.570;2023-06-19T13:55:17;12.73;;;7.55;;
78549;SDS011;68091;52.130;5.570;2023-06-19T13:57:44;12.18;;;7.68;;
78549;SDS011;68091;52.130;5.570;2023-06-19T14:00:10;10.55;;;6.95;;
78549;SDS011;68091;52.130;5.570;2023-06-19T14:02:37;9.93;;;7.05;;
78549;SDS011;68091;52.130;5.570;2023-06-19T14:05:04;8.80;;;7.22;;
78549;SDS011;68091;52.130;5.570;2023-06-19T14:07:31;12.68;;;7.70;;
78549;SDS011;68091;52.130;5.570;2023-06-19T14:09:57;11.85;;;7.68;;
78549;SDS011;68091;52.130;5.570;2023-06-19T14:12:23;10.27;;;7.63;;
78549;SDS011;68091;52.130;5.570;2023-06-19T14:14:48;11.30;;;7.25;;
78549;SDS011;68091;52.130;5.570;2023-06-19T14:17:14;11.93;;;6.50;;
78549;SDS011;68091;52.130;5.570;2023-06-19T14:19:40;9.68;;;6.80;;
78549;SDS011;68091;52.130;5.570;2023-06-19T14:22:06;8.45;;;6.00;;
78549;SDS011;68091;52.130;5.570;2023-06-19T14:24:31;10.70;;;6.03;;
78549;SDS011;68091;52.130;5.570;2023-06-19T14:26:57;8.63;;;6.43;;
78549;SDS011;68091;52.130;5.570;2023-06-19T14:29:23;9.02;;;6.43;;
78549;SDS011;68091;52.130;5.570;2023-06-19T14:31:50;12.40;;;7.22;;
78549;SDS011;68091;52.130;5.570;2023-06-19T14:34:16;9.13;;;6.57;;
78549;SDS011;68091;52.130;5.570;2023-06-19T14:36:43;7.75;;;6.18;;
78549;SDS011;68091;52.130;5.570;2023-06-19T14:39:09;9.40;;;6.43;;
78549;SDS011;68091;52.130;5.570;2023-06-19T14:41:36;6.78;;;5.10;;